sensor_id;sensor_type;location;lat;lon;timestamp;pressure;altitude;pressure_sealevel;temperature;humidity
76095;BME280;64821;13.710;100.604;2024-01-30T20:01:40;101450.28;;;41.27;26.01
76095;BME280;64821;13.710;100.604;2024-01-30T20:02:44;101455.94;;;41.31;25.68
76095;BME280;64821;13.710;100.604;2024-01-30T20:03:48;101455.03;;;41.27;25.96
76095;BME280;64821;13.710;100.604;2024-01-30T20:04:52;101449.50;;;41.27;25.75
76095;BME280;64821;13.710;100.604;2024-01-30T20:05:56;101457.47;;;41.28;26.04
76095;BME280;64821;13.710;100.604;2024-01-30T20:07:00;101455.41;;;41.25;26.33
76095;BME280;64821;13.710;100.604;2024-01-30T20:08:04;101438.47;;;41.11;25.64
76095;BME280;64821;13.710;100.604;2024-01-30T20:09:08;101417.22;;;41.03;26.02
76095;BME280;64821;13.710;100.604;2024-01-30T20:10:12;101454.56;;;41.21;25.96
76095;BME280;64821;13.710;100.604;2024-01-30T20:11:16;101446.56;;;41.20;25.94
76095;BME280;64821;13.710;100.604;2024-01-30T20:12:20;101442.91;;;41.16;26.23
76095;BME280;64821;13.710;100.604;2024-01-30T20:13:24;101442.09;;;41.15;25.92
76095;BME280;64821;13.710;100.604;2024-01-30T20:14:30;101434.56;;;41.16;26.02
76095;BME280;64821;13.710;100.604;2024-01-30T20:15:34;101440.22;;;41.19;26.24
76095;BME280;64821;13.710;100.604;2024-01-30T20:16:40;101444.97;;;41.19;26.47
76095;BME280;64821;13.710;100.604;2024-01-30T20:17:44;101446.56;;;41.20;26.07
76095;BME280;64821;13.710;100.604;2024-01-30T20:18:48;101442.63;;;41.21;26.30
76095;BME280;64821;13.710;100.604;2024-01-30T20:19:52;101437.91;;;41.25;25.63
76095;BME280;64821;13.710;100.604;2024-01-30T20:20:56;101436.25;;;41.20;25.98
76095;BME280;64821;13.710;100.604;2024-01-30T20:22:00;101441.88;;;41.24;26.33
76095;BME280;64821;13.710;100.604;2024-01-30T20:23:04;101431.94;;;41.23;25.96
76095;BME280;64821;13.710;100.604;2024-01-30T20:24:08;101412.88;;;41.06;26.05
76095;BME280;64821;13.710;100.604;2024-01-30T20:25:12;101431.94;;;41.23;25.79
76095;BME280;64821;13.710;100.604;2024-01-30T20:26:18;101432.81;;;41.27;25.85
76095;BME280;64821;13.710;100.604;2024-01-30T20:27:22;101424.78;;;41.22;25.57
76095;BME280;64821;13.710;100.604;2024-01-30T20:28:26;101431.28;;;41.29;25.66
76095;BME280;64821;13.710;100.604;2024-01-30T20:29:30;101430.34;;;41.22;25.81
76095;BME280;64821;13.710;100.604;2024-01-30T20:30:34;101434.72;;;41.23;26.25
76095;BME280;64821;13.710;100.604;2024-01-30T20:31:40;101425.59;;;41.22;26.09
76095;BME280;64821;13.710;100.604;2024-01-30T20:32:43;101425.94;;;41.21;26.11
76095;BME280;64821;13.710;100.604;2024-01-30T20:33:47;101427.56;;;41.22;25.68
76095;BME280;64821;13.710;100.604;2024-01-30T20:34:51;101425.94;;;41.21;25.83
76095;BME280;64821;13.710;100.604;2024-01-30T20:35:55;101417.44;;;41.14;25.79
76095;BME280;64821;13.710;100.604;2024-01-30T20:36:59;101420.38;;;41.21;25.67
76095;BME280;64821;13.710;100.604;2024-01-30T20:38:03;101403.00;;;41.08;25.93
76095;BME280;64821;13.710;100.604;2024-01-30T20:39:07;101408.22;;;41.10;26.16
76095;BME280;64821;13.710;100.604;2024-01-30T20:40:10;101424.41;;;41.23;26.00
76095;BME280;64821;13.710;100.604;2024-01-30T20:41:14;101416.78;;;41.20;26.22
76095;BME280;64821;13.710;100.604;2024-01-30T20:42:18;101423.22;;;41.24;25.63
76095;BME280;64821;13.710;100.604;2024-01-30T20:43:22;101397.56;;;41.12;26.29
76095;BME280;64821;13.710;100.604;2024-01-30T20:44:26;101418.47;;;41.25;25.90
76095;BME280;64821;13.710;100.604;2024-01-30T20:45:30;101424.41;;;41.23;26.04
76095;BME280;64821;13.710;100.604;2024-01-30T20:46:34;101423.00;;;41.14;26.06
76095;BME280;64821;13.710;100.604;2024-01-30T20:47:39;101431.88;;;41.19;26.22
76095;BME280;64821;13.710;100.604;2024-01-30T20:48:43;101430.69;;;41.20;26.01
76095;BME280;64821;13.710;100.604;2024-01-30T20:49:47;101421.84;;;41.15;26.12
76095;BME280;64821;13.710;100.604;2024-01-30T20:50:51;101419.84;;;41.15;25.91
76095;BME280;64821;13.710;100.604;2024-01-30T20:51:55;101427.13;;;41.20;26.07
76095;BME280;64821;13.710;100.604;2024-01-30T20:52:59;101427.03;;;41.16;26.02
76095;BME280;64821;13.710;100.604;2024-01-30T20:54:03;101429.81;;;41.16;25.84
76095;BME280;64821;13.710;100.604;2024-01-30T20:55:07;101416.81;;;41.04;26.01
76095;BME280;64821;13.710;100.604;2024-01-30T20:56:11;101428.16;;;41.12;26.06
76095;BME280;64821;13.710;100.604;2024-01-30T20:57:15;101412.38;;;41.00;26.01
76095;BME280;64821;13.710;100.604;2024-01-30T20:58:19;101442.53;;;41.17;26.43
76095;BME280;64821;13.710;100.604;2024-01-30T20:59:23;101433.34;;;41.13;26.22
76095;BME280;64821;13.710;100.604;2024-01-30T21:00:26;101438.50;;;41.15;25.78
76095;BME280;64821;13.710;100.604;2024-01-30T21:01:30;101388.53;;;40.80;26.09
76095;BME280;64821;13.710;100.604;2024-01-30T21:02:35;101416.25;;;40.95;26.41
76095;BME280;64821;13.710;100.604;2024-01-30T21:03:41;101449.38;;;41.04;25.96
76095;BME280;64821;13.710;100.604;2024-01-30T21:04:44;101445.06;;;41.07;25.96
76095;BME280;64821;13.710;100.604;2024-01-30T21:05:49;101428.16;;;40.96;26.17
76095;BME280;64821;13.710;100.604;2024-01-30T21:06:53;101453.41;;;41.07;26.37
76095;BME280;64821;13.710;100.604;2024-01-30T21:07:57;101461.38;;;41.08;26.07
76095;BME280;64821;13.710;100.604;2024-01-30T21:09:01;101403.16;;;40.77;26.08
76095;BME280;64821;13.710;100.604;2024-01-30T21:10:06;101455.94;;;41.12;26.12
76095;BME280;64821;13.710;100.604;2024-01-30T21:11:10;101459.53;;;41.12;26.08
76095;BME280;64821;13.710;100.604;2024-01-30T21:12:14;101459.53;;;41.12;25.91
76095;BME280;64821;13.710;100.604;2024-01-30T21:13:17;101435.34;;;40.97;25.87
76095;BME280;64821;13.710;100.604;2024-01-30T21:14:21;101455.47;;;41.10;26.13
76095;BME280;64821;13.710;100.604;2024-01-30T21:15:25;101465.41;;;41.11;26.00
76095;BME280;64821;13.710;100.604;2024-01-30T21:16:29;101453.03;;;41.08;25.77
76095;BME280;64821;13.710;100.604;2024-01-30T21:17:32;101464.28;;;41.12;26.20
76095;BME280;64821;13.710;100.604;2024-01-30T21:18:36;101461.03;;;41.10;26.11
76095;BME280;64821;13.710;100.604;2024-01-30T21:19:42;101458.25;;;41.10;26.07
76095;BME280;64821;13.710;100.604;2024-01-30T21:20:46;101405.13;;;40.76;26.10
76095;BME280;64821;13.710;100.604;2024-01-30T21:21:53;101455.59;;;41.13;25.77
76095;BME280;64821;13.710;100.604;2024-01-30T21:22:57;101449.09;;;41.09;25.91
76095;BME280;64821;13.710;100.604;2024-01-30T21:24:01;101447.78;;;41.03;26.34
76095;BME280;64821;13.710;100.604;2024-01-30T21:25:05;101450.63;;;41.07;26.01
76095;BME280;64821;13.710;100.604;2024-01-30T21:26:10;101413.19;;;40.81;26.27
76095;BME280;64821;13.710;100.604;2024-01-30T21:27:13;101432.06;;;40.91;26.16
76095;BME280;64821;13.710;100.604;2024-01-30T21:28:17;101456.13;;;41.03;26.03
76095;BME280;64821;13.710;100.604;2024-01-30T21:29:21;101451.44;;;41.07;26.13
76095;BME280;64821;13.710;100.604;2024-01-30T21:30:25;101456.63;;;41.09;26.32
76095;BME280;64821;13.710;100.604;2024-01-30T21:31:29;101449.91;;;41.10;26.10
76095;BME280;64821;13.710;100.604;2024-01-30T21:32:33;101449.91;;;41.10;25.87
76095;BME280;64821;13.710;100.604;2024-01-30T21:33:36;101402.78;;;40.78;26.48
76095;BME280;64821;13.710;100.604;2024-01-30T21:34:42;101446.22;;;41.06;26.32
76095;BME280;64821;13.710;100.604;2024-01-30T21:35:46;101449.47;;;41.08;25.89
76095;BME280;64821;13.710;100.604;2024-01-30T21:36:50;101442.59;;;41.01;26.04
76095;BME280;64821;13.710;100.604;2024-01-30T21:37:54;101449.47;;;41.08;26.47
76095;BME280;64821;13.710;100.604;2024-01-30T21:38:58;101435.44;;;41.00;26.17
76095;BME280;64821;13.710;100.604;2024-01-30T21:40:01;101447.03;;;41.06;26.18
76095;BME280;64821;13.710;100.604;2024-01-30T21:41:06;101448.22;;;41.05;26.22
76095;BME280;64821;13.710;100.604;2024-01-30T21:42:09;101434.09;;;40.94;26.11
76095;BME280;64821;13.710;100.604;2024-01-30T21:43:13;101450.63;;;41.07;26.29
76095;BME280;64821;13.710;100.604;2024-01-30T21:44:17;101456.19;;;41.07;26.40
76095;BME280;64821;13.710;100.604;2024-01-30T21:45:21;101442.88;;;40.96;26.16
76095;BME280;64821;13.710;100.604;2024-01-30T21:46:25;101458.16;;;41.06;26.04
76095;BME280;64821;13.710;100.604;2024-01-30T21:47:29;101442.06;;;40.96;25.99
76095;BME280;64821;13.710;100.604;2024-01-30T21:48:33;101460.56;;;41.08;26.32
76095;BME280;64821;13.710;100.604;2024-01-30T21:49:41;101439.00;;;41.01;26.70
76095;BME280;64821;13.710;100.604;2024-01-30T21:50:46;101461.03;;;41.10;26.28
76095;BME280;64821;13.710;100.604;2024-01-30T21:51:49;101463.72;;;41.06;26.49
76095;BME280;64821;13.710;100.604;2024-01-30T21:52:53;101439.13;;;40.89;26.21
76095;BME280;64821;13.710;100.604;2024-01-30T21:53:57;101463.66;;;41.02;26.50
76095;BME280;64821;13.710;100.604;2024-01-30T21:55:01;101449.69;;;40.99;26.11
76095;BME280;64821;13.710;100.604;2024-01-30T21:56:05;101461.03;;;41.10;26.13
76095;BME280;64821;13.710;100.604;2024-01-30T21:57:09;101401.72;;;40.67;26.06
76095;BME280;64821;13.710;100.604;2024-01-30T21:58:13;101453.50;;;41.10;25.98
76095;BME280;64821;13.710;100.604;2024-01-30T21:59:17;101437.25;;;40.93;26.09
76095;BME280;64821;13.710;100.604;2024-01-30T22:00:21;101439.72;;;40.98;26.43
76095;BME280;64821;13.710;100.604;2024-01-30T22:01:25;101434.38;;;40.89;26.54
76095;BME280;64821;13.710;100.604;2024-01-30T22:02:29;101450.13;;;41.01;26.30
76095;BME280;64821;13.710;100.604;2024-01-30T22:03:33;101442.50;;;40.98;26.20
76095;BME280;64821;13.710;100.604;2024-01-30T22:04:37;101461.03;;;41.10;26.33
76095;BME280;64821;13.710;100.604;2024-01-30T22:05:44;101445.16;;;40.91;26.67
76095;BME280;64821;13.710;100.604;2024-01-30T22:06:47;101453.47;;;40.91;26.59
76095;BME280;64821;13.710;100.604;2024-01-30T22:07:51;101469.84;;;40.96;26.41
76095;BME280;64821;13.710;100.604;2024-01-30T22:08:55;101456.16;;;40.87;26.54
76095;BME280;64821;13.710;100.604;2024-01-30T22:09:59;101466.84;;;40.85;26.27
76095;BME280;64821;13.710;100.604;2024-01-30T22:11:03;101460.88;;;40.83;26.46
76095;BME280;64821;13.710;100.604;2024-01-30T22:12:07;101469.34;;;40.90;26.44
76095;BME280;64821;13.710;100.604;2024-01-30T22:13:11;101474.00;;;40.86;26.47
76095;BME280;64821;13.710;100.604;2024-01-30T22:14:15;101468.41;;;40.83;26.45
76095;BME280;64821;13.710;100.604;2024-01-30T22:15:18;101465.22;;;40.84;26.32
76095;BME280;64821;13.710;100.604;2024-01-30T22:16:22;101450.03;;;40.78;26.55
76095;BME280;64821;13.710;100.604;2024-01-30T22:17:27;101473.28;;;40.89;26.26
76095;BME280;64821;13.710;100.604;2024-01-30T22:18:31;101475.00;;;40.94;26.24
76095;BME280;64821;13.710;100.604;2024-01-30T22:19:34;101470.50;;;40.89;26.54
76095;BME280;64821;13.710;100.604;2024-01-30T22:20:38;101482.00;;;40.88;26.51
76095;BME280;64821;13.710;100.604;2024-01-30T22:21:44;101478.03;;;40.89;26.68
76095;BME280;64821;13.710;100.604;2024-01-30T22:22:48;101480.38;;;40.87;26.25
76095;BME280;64821;13.710;100.604;2024-01-30T22:23:52;101482.06;;;40.91;26.19
76095;BME280;64821;13.710;100.604;2024-01-30T22:24:55;101474.75;;;40.83;26.38
76095;BME280;64821;13.710;100.604;2024-01-30T22:25:59;101483.59;;;40.89;26.39
76095;BME280;64821;13.710;100.604;2024-01-30T22:27:04;101482.69;;;40.85;26.24
76095;BME280;64821;13.710;100.604;2024-01-30T22:28:08;101483.91;;;40.84;26.13
76095;BME280;64821;13.710;100.604;2024-01-30T22:29:11;101485.13;;;40.86;26.04
76095;BME280;64821;13.710;100.604;2024-01-30T22:30:15;101487.53;;;40.88;26.58
76095;BME280;64821;13.710;100.604;2024-01-30T22:31:19;101480.47;;;40.90;26.53
76095;BME280;64821;13.710;100.604;2024-01-30T22:32:23;101487.28;;;40.93;26.30
76095;BME280;64821;13.710;100.604;2024-01-30T22:33:27;101480.31;;;40.83;26.59
76095;BME280;64821;13.710;100.604;2024-01-30T22:34:31;101477.44;;;40.80;26.26
76095;BME280;64821;13.710;100.604;2024-01-30T22:35:35;101484.25;;;40.82;26.34
76095;BME280;64821;13.710;100.604;2024-01-30T22:36:39;101482.34;;;40.86;26.22
76095;BME280;64821;13.710;100.604;2024-01-30T22:37:44;101482.28;;;40.83;26.71
76095;BME280;64821;13.710;100.604;2024-01-30T22:38:48;101481.91;;;40.84;26.38
76095;BME280;64821;13.710;100.604;2024-01-30T22:39:52;101481.91;;;40.84;26.49
76095;BME280;64821;13.710;100.604;2024-01-30T22:40:57;101485.88;;;40.83;26.78
76095;BME280;64821;13.710;100.604;2024-01-30T22:42:02;101485.13;;;40.86;26.50
76095;BME280;64821;13.710;100.604;2024-01-30T22:43:06;101482.28;;;40.83;26.40
76095;BME280;64821;13.710;100.604;2024-01-30T22:44:10;101487.03;;;40.82;26.49
76095;BME280;64821;13.710;100.604;2024-01-30T22:45:14;101494.47;;;40.78;26.33
76095;BME280;64821;13.710;100.604;2024-01-30T22:46:17;101481.22;;;40.72;26.43
76095;BME280;64821;13.710;100.604;2024-01-30T22:47:22;101491.53;;;40.71;26.60
76095;BME280;64821;13.710;100.604;2024-01-30T22:48:26;101490.38;;;40.72;26.51
76095;BME280;64821;13.710;100.604;2024-01-30T22:49:30;101480.88;;;40.73;26.77
76095;BME280;64821;13.710;100.604;2024-01-30T22:50:34;101489.72;;;40.79;26.58
76095;BME280;64821;13.710;100.604;2024-01-30T22:51:38;101486.34;;;40.70;26.50
76095;BME280;64821;13.710;100.604;2024-01-30T22:52:43;101481.75;;;40.61;26.93
76095;BME280;64821;13.710;100.604;2024-01-30T22:53:47;101502.19;;;40.69;26.41
76095;BME280;64821;13.710;100.604;2024-01-30T22:54:51;101487.84;;;40.67;26.67
76095;BME280;64821;13.710;100.604;2024-01-30T22:55:55;101496.66;;;40.69;26.67
76095;BME280;64821;13.710;100.604;2024-01-30T22:56:59;101502.53;;;40.67;26.57
76095;BME280;64821;13.710;100.604;2024-01-30T22:58:03;101491.53;;;40.71;26.71
76095;BME280;64821;13.710;100.604;2024-01-30T22:59:07;101502.88;;;40.66;26.60
76095;BME280;64821;13.710;100.604;2024-01-30T23:00:11;101500.50;;;40.64;26.46
76095;BME280;64821;13.710;100.604;2024-01-30T23:01:16;101501.38;;;40.68;26.51
76095;BME280;64821;13.710;100.604;2024-01-30T23:02:20;101503.69;;;40.66;26.31
76095;BME280;64821;13.710;100.604;2024-01-30T23:03:23;101500.91;;;40.66;26.81
76095;BME280;64821;13.710;100.604;2024-01-30T23:04:28;101499.16;;;40.74;26.37
76095;BME280;64821;13.710;100.604;2024-01-30T23:05:32;101487.16;;;40.70;26.25
76095;BME280;64821;13.710;100.604;2024-01-30T23:06:35;101498.78;;;40.76;26.69
76095;BME280;64821;13.710;100.604;2024-01-30T23:07:39;101495.63;;;40.77;26.52
76095;BME280;64821;13.710;100.604;2024-01-30T23:08:45;101491.19;;;40.73;26.73
76095;BME280;64821;13.710;100.604;2024-01-30T23:09:49;101478.69;;;40.66;26.60
76095;BME280;64821;13.710;100.604;2024-01-30T23:10:53;101494.03;;;40.76;26.49
76095;BME280;64821;13.710;100.604;2024-01-30T23:11:56;101494.31;;;40.71;26.70
76095;BME280;64821;13.710;100.604;2024-01-30T23:13:00;101506.13;;;40.68;26.41
76095;BME280;64821;13.710;100.604;2024-01-30T23:14:04;101501.72;;;40.67;26.77
76095;BME280;64821;13.710;100.604;2024-01-30T23:15:08;101497.78;;;40.68;26.67
76095;BME280;64821;13.710;100.604;2024-01-30T23:16:12;101497.31;;;40.66;26.69
76095;BME280;64821;13.710;100.604;2024-01-30T23:17:16;101500.69;;;40.72;26.40
76095;BME280;64821;13.710;100.604;2024-01-30T23:18:20;101504.63;;;40.71;26.57
76095;BME280;64821;13.710;100.604;2024-01-30T23:19:23;101498.72;;;40.72;26.52
76095;BME280;64821;13.710;100.604;2024-01-30T23:20:28;101456.00;;;40.29;26.79
76095;BME280;64821;13.710;100.604;2024-01-30T23:21:32;101498.69;;;40.56;26.75
76095;BME280;64821;13.710;100.604;2024-01-30T23:22:35;101506.75;;;40.61;26.82
76095;BME280;64821;13.710;100.604;2024-01-30T23:23:39;101508.81;;;40.64;26.61
76095;BME280;64821;13.710;100.604;2024-01-30T23:24:45;101465.66;;;40.36;27.14
76095;BME280;64821;13.710;100.604;2024-01-30T23:25:49;101501.22;;;40.61;26.78
76095;BME280;64821;13.710;100.604;2024-01-30T23:26:52;101514.00;;;40.66;26.60
76095;BME280;64821;13.710;100.604;2024-01-30T23:27:56;101510.19;;;40.71;26.66
76095;BME280;64821;13.710;100.604;2024-01-30T23:29:00;101511.66;;;40.68;26.55
76095;BME280;64821;13.710;100.604;2024-01-30T23:30:04;101520.72;;;40.65;26.75
76095;BME280;64821;13.710;100.604;2024-01-30T23:31:08;101451.31;;;40.18;26.80
76095;BME280;64821;13.710;100.604;2024-01-30T23:32:12;101525.56;;;40.68;26.68
76095;BME280;64821;13.710;100.604;2024-01-30T23:33:27;101500.31;;;40.57;26.69
76095;BME280;64821;13.710;100.604;2024-01-30T23:34:31;101524.44;;;40.69;26.64
76095;BME280;64821;13.710;100.604;2024-01-30T23:35:35;101493.63;;;40.43;26.50
76095;BME280;64821;13.710;100.604;2024-01-30T23:36:42;101516.09;;;40.53;27.08
76095;BME280;64821;13.710;100.604;2024-01-30T23:37:46;101516.97;;;40.57;26.78
76095;BME280;64821;13.710;100.604;2024-01-30T23:38:50;101536.22;;;40.66;26.66
76095;BME280;64821;13.710;100.604;2024-01-30T23:39:55;101538.19;;;40.65;27.17
76095;BME280;64821;13.710;100.604;2024-01-30T23:40:59;101527.53;;;40.67;26.67
76095;BME280;64821;13.710;100.604;2024-01-30T23:42:03;101528.69;;;40.66;26.73
76095;BME280;64821;13.710;100.604;2024-01-30T23:43:07;101520.34;;;40.66;26.60
76095;BME280;64821;13.710;100.604;2024-01-30T23:44:11;101501.66;;;40.48;26.92
76095;BME280;64821;13.710;100.604;2024-01-30T23:45:15;101530.31;;;40.67;26.70
76095;BME280;64821;13.710;100.604;2024-01-30T23:46:18;101528.34;;;40.68;26.78
76095;BME280;64821;13.710;100.604;2024-01-30T23:47:22;101523.59;;;40.68;26.71
76095;BME280;64821;13.710;100.604;2024-01-30T23:48:26;101520.81;;;40.68;26.80
76095;BME280;64821;13.710;100.604;2024-01-30T23:49:30;101511.59;;;40.64;26.93
76095;BME280;64821;13.710;100.604;2024-01-30T23:50:35;101488.59;;;40.48;26.86
76095;BME280;64821;13.710;100.604;2024-01-30T23:51:38;101525.50;;;40.64;26.61
76095;BME280;64821;13.710;100.604;2024-01-30T23:52:43;101518.31;;;40.63;26.96
76095;BME280;64821;13.710;100.604;2024-01-30T23:53:47;101505.41;;;40.55;26.82
76095;BME280;64821;13.710;100.604;2024-01-30T23:54:51;101527.06;;;40.65;26.82
76095;BME280;64821;13.710;100.604;2024-01-30T23:55:56;101526.66;;;40.63;27.18
76095;BME280;64821;13.710;100.604;2024-01-30T23:57:00;101526.72;;;40.67;26.78
76095;BME280;64821;13.710;100.604;2024-01-30T23:58:04;101527.06;;;40.65;26.86
76095;BME280;64821;13.710;100.604;2024-01-30T23:59:10;101528.34;;;40.68;27.55
